createdAt,value
2019-01-28T00:00:53.693Z,27.08
2019-01-28T00:01:53.681Z,26.91
2019-01-28T00:02:53.781Z,26.97
2019-01-28T00:03:53.664Z,26.91
2019-01-28T00:04:53.632Z,26.82
2019-01-28T00:05:53.684Z,26.86
2019-01-28T00:06:53.566Z,26.82
2019-01-28T00:07:53.544Z,26.82
2019-01-28T00:08:53.548Z,26.86
2019-01-28T00:09:53.762Z,26.82
2019-01-28T00:10:53.474Z,26.75
2019-01-28T00:11:54.077Z,26.75
2019-01-28T00:12:53.591Z,26.63
2019-01-28T00:13:54.095Z,26.63
2019-01-28T00:14:53.908Z,26.64
2019-01-28T00:15:53.724Z,26.53
2019-01-28T00:16:53.402Z,26.54
2019-01-28T00:17:54.489Z,26.50
2019-01-28T00:18:53.400Z,26.52
2019-01-28T00:19:53.297Z,26.49
2019-01-28T00:20:53.229Z,26.41
2019-01-28T00:21:53.721Z,26.52
2019-01-28T00:22:53.347Z,26.38
2019-01-28T00:23:53.310Z,26.41
2019-01-28T00:24:53.899Z,26.39
2019-01-28T00:25:53.147Z,26.41
2019-01-28T00:26:53.109Z,26.41
2019-01-28T00:27:53.118Z,26.32
2019-01-28T00:28:53.379Z,26.30
2019-01-28T00:29:53.032Z,26.32
2019-01-28T00:30:52.998Z,26.34
2019-01-28T00:31:53.071Z,26.30
2019-01-28T00:32:53.497Z,26.17
2019-01-28T00:33:53.067Z,26.17
2019-01-28T00:34:52.961Z,26.16
2019-01-28T00:35:53.740Z,26.11
2019-01-28T00:36:52.996Z,26.15
2019-01-28T00:37:52.870Z,26.09
2019-01-28T00:38:52.939Z,25.97
2019-01-28T00:39:52.861Z,25.94
2019-01-28T00:40:52.789Z,25.97
2019-01-28T00:41:52.792Z,26.00
2019-01-28T00:42:53.221Z,25.93
2019-01-28T00:43:52.855Z,25.93
2019-01-28T00:44:52.684Z,25.88
2019-01-28T00:45:53.003Z,25.85
2019-01-28T00:46:52.836Z,25.86
2019-01-28T00:47:52.767Z,25.93
2019-01-28T00:48:52.817Z,25.79
2019-01-28T00:49:52.734Z,25.79
2019-01-28T00:50:52.484Z,25.88
2019-01-28T00:51:52.513Z,25.82
2019-01-28T00:52:52.718Z,25.82
2019-01-28T00:53:52.456Z,25.81
2019-01-28T00:54:52.865Z,25.81
2019-01-28T00:55:52.568Z,25.82
2019-01-28T00:56:52.388Z,25.78
2019-01-28T00:57:52.440Z,25.75
2019-01-28T00:58:52.354Z,25.75
2019-01-28T00:59:52.409Z,25.76
2019-01-28T01:00:52.482Z,25.76
2019-01-28T01:01:52.287Z,25.71
2019-01-28T01:02:52.293Z,25.84
2019-01-28T01:03:52.345Z,25.75
2019-01-28T01:04:52.238Z,25.76
2019-01-28T01:05:52.468Z,25.84
2019-01-28T01:06:52.242Z,25.75
2019-01-28T01:07:52.118Z,25.81
2019-01-28T01:08:52.085Z,25.81
2019-01-28T01:09:52.100Z,25.85
2019-01-28T01:10:52.155Z,25.88
2019-01-28T01:11:52.040Z,25.85
2019-01-28T01:12:52.030Z,25.88
2019-01-28T01:13:51.983Z,25.93
2019-01-28T01:14:52.231Z,25.88
2019-01-28T01:15:52.150Z,25.85
2019-01-28T01:16:51.942Z,25.88
2019-01-28T01:17:52.037Z,25.86
2019-01-28T01:18:51.974Z,25.85
2019-01-28T01:19:51.854Z,25.81
2019-01-28T01:20:51.927Z,25.88
2019-01-28T01:21:51.915Z,25.82
2019-01-28T01:22:51.782Z,25.82
2019-01-28T01:23:51.995Z,25.86
2019-01-28T01:24:51.723Z,25.82
2019-01-28T01:25:51.930Z,25.88
2019-01-28T01:26:51.773Z,25.86
2019-01-28T01:27:51.661Z,25.89
2019-01-28T01:28:51.647Z,25.89
2019-01-28T01:29:51.673Z,25.84
2019-01-28T01:30:51.819Z,25.84
2019-01-28T01:31:51.608Z,25.89
2019-01-28T01:32:51.878Z,25.85
2019-01-28T01:33:51.518Z,25.89
2019-01-28T01:34:51.504Z,25.84
2019-01-28T01:35:51.795Z,25.81
2019-01-28T01:36:51.431Z,25.84
2019-01-28T01:37:51.797Z,25.81
2019-01-28T01:38:52.271Z,25.81
2019-01-28T01:39:51.349Z,25.74
2019-01-28T01:40:51.350Z,25.75
2019-01-28T01:41:51.715Z,25.74
2019-01-28T01:42:51.294Z,25.71
2019-01-28T01:43:51.280Z,25.75
2019-01-28T01:44:51.410Z,25.70
2019-01-28T01:45:51.381Z,25.75
2019-01-28T01:46:51.758Z,25.63
2019-01-28T01:47:51.770Z,25.64
2019-01-28T01:48:51.421Z,25.63
2019-01-28T01:49:51.452Z,25.64
2019-01-28T01:50:51.180Z,25.70
2019-01-28T01:51:51.789Z,25.63
2019-01-28T01:52:52.164Z,25.63
2019-01-28T01:54:51.545Z,25.62
2019-01-28T01:55:51.213Z,25.64
2019-01-28T01:56:51.295Z,25.63
2019-01-28T01:57:50.970Z,25.64
2019-01-28T01:58:50.904Z,25.62
2019-01-28T01:59:50.979Z,25.63
2019-01-28T02:00:50.937Z,25.59
2019-01-28T02:01:50.861Z,25.52
2019-01-28T02:02:51.213Z,25.56
2019-01-28T02:03:50.784Z,25.63
2019-01-28T02:04:50.982Z,25.51
2019-01-28T02:05:50.832Z,25.63
2019-01-28T02:06:50.692Z,25.52
2019-01-28T02:07:50.832Z,25.57
2019-01-28T02:08:50.683Z,25.54
2019-01-28T02:09:51.046Z,25.56
2019-01-28T02:10:51.297Z,25.57
2019-01-28T02:11:51.264Z,25.56
2019-01-28T02:12:50.556Z,25.59
2019-01-28T02:13:50.877Z,25.59
2019-01-28T02:14:51.155Z,25.64
2019-01-28T02:15:50.497Z,25.57
2019-01-28T02:16:50.628Z,25.54
2019-01-28T02:17:50.464Z,25.52
2019-01-28T02:18:50.425Z,25.52
2019-01-28T02:19:50.385Z,25.57
2019-01-28T02:20:50.553Z,25.57
2019-01-28T02:21:50.427Z,25.59
2019-01-28T02:22:50.356Z,25.59
2019-01-28T02:23:50.298Z,25.60
2019-01-28T02:24:50.335Z,25.59
2019-01-28T02:25:50.357Z,25.57
2019-01-28T02:26:50.338Z,25.57
2019-01-28T02:27:50.199Z,25.59
2019-01-28T02:28:50.203Z,25.51
2019-01-28T02:29:50.216Z,25.52
2019-01-28T02:30:50.147Z,25.62
2019-01-28T02:31:50.302Z,25.57
2019-01-28T02:32:50.091Z,25.60
2019-01-28T02:33:50.156Z,25.56
2019-01-28T02:34:50.045Z,25.54
2019-01-28T02:35:50.189Z,25.51
2019-01-28T02:36:50.074Z,25.62
2019-01-28T02:37:50.164Z,25.59
2019-01-28T02:38:49.915Z,25.62
2019-01-28T02:39:49.893Z,25.47
2019-01-28T02:40:50.393Z,25.54
2019-01-28T02:41:49.931Z,25.52
2019-01-28T02:42:49.916Z,25.60
2019-01-28T02:43:49.962Z,25.45
2019-01-28T02:44:50.223Z,25.52
2019-01-28T02:45:49.915Z,25.59
2019-01-28T02:46:49.728Z,25.57
2019-01-28T02:47:49.863Z,25.62
2019-01-28T02:48:49.704Z,25.62
2019-01-28T02:49:49.643Z,25.59
2019-01-28T02:50:49.616Z,25.56
2019-01-28T02:51:49.721Z,25.59
2019-01-28T02:52:49.974Z,25.56
2019-01-28T02:53:49.870Z,25.47
2019-01-28T02:54:49.569Z,25.54
2019-01-28T02:55:49.651Z,25.51
2019-01-28T02:56:49.601Z,25.45
2019-01-28T02:57:49.649Z,25.54
2019-01-28T02:58:50.014Z,25.44
2019-01-28T02:59:49.959Z,25.47
2019-01-28T03:00:49.410Z,25.54
2019-01-28T03:01:49.389Z,25.45
2019-01-28T03:02:49.333Z,25.56
2019-01-28T03:03:49.291Z,25.47
2019-01-28T03:04:49.399Z,25.47
2019-01-28T03:05:49.275Z,25.42
2019-01-28T03:06:49.265Z,25.42
2019-01-28T03:07:49.248Z,25.42
2019-01-28T03:08:49.179Z,25.42
2019-01-28T03:09:49.434Z,25.41
2019-01-28T03:10:49.379Z,25.41
2019-01-28T03:11:49.167Z,25.54
2019-01-28T03:12:49.204Z,25.42
2019-01-28T03:13:49.073Z,25.41
2019-01-28T03:14:49.132Z,25.49
2019-01-28T03:15:49.021Z,25.52
2019-01-28T03:16:49.068Z,25.48
2019-01-28T03:17:48.971Z,25.59
2019-01-28T03:18:48.983Z,25.49
2019-01-28T03:19:49.113Z,25.56
2019-01-28T03:20:49.034Z,25.54
2019-01-28T03:21:48.882Z,25.47
2019-01-28T03:22:49.428Z,25.54
2019-01-28T03:23:48.811Z,25.54
2019-01-28T03:24:48.845Z,25.59
2019-01-28T03:25:48.967Z,25.60
2019-01-28T03:26:48.751Z,25.64
2019-01-28T03:27:48.741Z,25.66
2019-01-28T03:28:48.903Z,25.60
2019-01-28T03:29:48.709Z,25.62
2019-01-28T03:30:48.856Z,25.62
2019-01-28T03:31:48.598Z,25.67
2019-01-28T03:32:49.454Z,25.64
2019-01-28T03:33:48.664Z,25.66
2019-01-28T03:34:48.649Z,25.64
2019-01-28T03:35:48.926Z,25.60
2019-01-28T03:36:48.623Z,25.57
2019-01-28T03:37:48.484Z,25.49
2019-01-28T03:38:49.040Z,25.60
2019-01-28T03:39:48.949Z,25.52
2019-01-28T03:40:48.406Z,25.47
2019-01-28T03:41:48.926Z,25.57
2019-01-28T03:42:48.530Z,25.54
2019-01-28T03:43:48.362Z,25.52
2019-01-28T03:44:48.283Z,25.51
2019-01-28T03:45:48.310Z,25.57
2019-01-28T03:46:48.258Z,25.52
2019-01-28T03:47:48.367Z,25.51
2019-01-28T03:48:48.730Z,25.44
2019-01-28T03:49:48.171Z,25.48
2019-01-28T03:50:48.154Z,25.54
2019-01-28T03:51:48.140Z,25.51
2019-01-28T03:52:48.205Z,25.60
2019-01-28T03:53:48.091Z,25.60
2019-01-28T03:54:48.075Z,25.57
2019-01-28T03:55:48.024Z,25.51
2019-01-28T03:56:48.004Z,25.49
2019-01-28T03:57:48.033Z,25.42
2019-01-28T03:58:48.074Z,25.47
2019-01-28T03:59:48.564Z,25.41
2019-01-28T04:00:47.894Z,25.57
2019-01-28T04:01:47.867Z,25.42
2019-01-28T04:02:47.836Z,25.59
2019-01-28T04:03:47.945Z,25.59
2019-01-28T04:04:47.794Z,25.49
2019-01-28T04:05:47.797Z,25.56
2019-01-28T04:06:47.750Z,25.44
2019-01-28T04:07:47.768Z,25.56
2019-01-28T04:08:48.537Z,25.60
2019-01-28T04:09:47.675Z,25.52
2019-01-28T04:10:47.732Z,25.56
2019-01-28T04:11:47.642Z,25.64
2019-01-28T04:12:47.683Z,25.54
2019-01-28T04:13:47.581Z,25.54
2019-01-28T04:14:47.677Z,25.52
2019-01-28T04:15:47.520Z,25.56
2019-01-28T04:16:47.547Z,25.60
2019-01-28T04:17:47.467Z,25.64
2019-01-28T04:18:47.494Z,25.63
2019-01-28T04:19:47.425Z,25.51
2019-01-28T04:20:47.524Z,25.56
2019-01-28T04:21:47.440Z,25.54
2019-01-28T04:22:47.407Z,25.54
2019-01-28T04:23:47.346Z,25.62
2019-01-28T04:24:47.313Z,25.54
2019-01-28T04:25:47.420Z,25.57
2019-01-28T04:26:47.361Z,25.56
2019-01-28T04:27:47.239Z,25.60
2019-01-28T04:28:47.223Z,25.56
2019-01-28T04:29:47.199Z,25.54
2019-01-28T04:30:47.215Z,25.49
2019-01-28T04:31:47.241Z,25.59
2019-01-28T04:32:47.106Z,25.47
2019-01-28T04:33:47.074Z,25.44
2019-01-28T04:34:47.095Z,25.52
2019-01-28T04:35:47.039Z,25.56
2019-01-28T04:36:47.035Z,25.42
2019-01-28T04:37:47.072Z,25.47
2019-01-28T04:38:46.984Z,25.47
2019-01-28T04:39:46.936Z,25.41
2019-01-28T04:40:46.923Z,25.47
2019-01-28T04:41:46.955Z,25.47
2019-01-28T04:42:47.118Z,25.47
2019-01-28T04:43:46.834Z,25.44
2019-01-28T04:44:46.799Z,25.39
2019-01-28T04:45:46.776Z,25.41
2019-01-28T04:46:46.857Z,25.39
2019-01-28T04:47:46.837Z,25.42
2019-01-28T04:48:46.898Z,25.38
2019-01-28T04:49:46.733Z,25.38
2019-01-28T04:50:46.664Z,25.42
2019-01-28T04:51:46.657Z,25.38
2019-01-28T04:52:46.709Z,25.32
2019-01-28T04:53:46.592Z,25.41
2019-01-28T04:54:46.583Z,25.30
2019-01-28T04:55:46.549Z,25.38
2019-01-28T04:56:46.533Z,25.34
2019-01-28T04:57:46.617Z,25.32
2019-01-28T04:58:46.462Z,25.39
2019-01-28T04:59:46.460Z,25.37
2019-01-28T05:00:46.407Z,25.32
2019-01-28T05:01:46.386Z,25.41
2019-01-28T05:02:46.404Z,25.38
2019-01-28T05:03:46.502Z,25.38
2019-01-28T05:04:46.352Z,25.37
2019-01-28T05:05:46.330Z,25.29
2019-01-28T05:06:46.258Z,25.27
2019-01-28T05:07:46.265Z,25.30
2019-01-28T05:08:46.209Z,25.30
2019-01-28T05:09:46.275Z,25.34
2019-01-28T05:10:46.171Z,25.24
2019-01-28T05:11:46.150Z,25.26
2019-01-28T05:12:46.148Z,25.29
2019-01-28T05:13:46.088Z,25.29
2019-01-28T05:14:46.583Z,25.26
2019-01-28T05:15:46.042Z,25.27
2019-01-28T05:16:46.051Z,25.27
2019-01-28T05:17:45.974Z,25.23
2019-01-28T05:18:45.965Z,25.19
2019-01-28T05:19:46.122Z,25.26
2019-01-28T05:20:46.098Z,25.22
2019-01-28T05:21:45.932Z,25.11
2019-01-28T05:22:45.876Z,25.20
2019-01-28T05:23:45.872Z,25.14
2019-01-28T05:24:45.913Z,25.12
2019-01-28T05:25:45.799Z,25.22
2019-01-28T05:26:45.757Z,25.20
2019-01-28T05:27:45.765Z,25.17
2019-01-28T05:28:45.719Z,25.24
2019-01-28T05:29:45.793Z,25.26
2019-01-28T05:30:45.677Z,25.30
2019-01-28T05:31:45.648Z,25.27
2019-01-28T05:32:45.621Z,25.27
2019-01-28T05:33:45.608Z,25.29
2019-01-28T05:34:45.701Z,25.23
2019-01-28T05:35:45.554Z,25.19
2019-01-28T05:36:45.544Z,25.22
2019-01-28T05:37:45.515Z,25.17
2019-01-28T05:38:45.540Z,25.05
2019-01-28T05:39:45.701Z,25.12
2019-01-28T05:40:45.607Z,25.08
2019-01-28T05:41:45.376Z,25.09
2019-01-28T05:42:45.370Z,25.00
2019-01-28T05:43:45.338Z,25.02
2019-01-28T05:44:45.477Z,24.97
2019-01-28T05:45:47.135Z,24.97
2019-01-28T05:46:45.270Z,24.97
2019-01-28T05:47:45.234Z,25.04
2019-01-28T05:48:45.201Z,25.01
2019-01-28T05:49:45.142Z,25.00
2019-01-28T05:50:45.205Z,25.00
2019-01-28T05:51:45.248Z,25.04
2019-01-28T05:52:45.134Z,24.94
2019-01-28T05:53:45.090Z,25.09
2019-01-28T05:54:45.095Z,25.07
2019-01-28T05:55:45.043Z,25.04
2019-01-28T05:56:45.111Z,25.11
2019-01-28T05:57:44.996Z,25.07
2019-01-28T05:58:44.967Z,25.14
2019-01-28T05:59:44.968Z,25.12
2019-01-28T06:00:44.898Z,25.14
2019-01-28T06:01:44.992Z,25.09
2019-01-28T06:02:44.836Z,25.11
2019-01-28T06:03:44.821Z,25.17
2019-01-28T06:04:44.822Z,25.14
2019-01-28T06:05:44.793Z,25.15
2019-01-28T06:06:44.960Z,25.09
2019-01-28T06:07:44.782Z,25.17
2019-01-28T06:08:44.714Z,25.12
2019-01-28T06:09:44.733Z,25.20
2019-01-28T06:10:44.645Z,25.23
2019-01-28T06:11:44.737Z,25.09
2019-01-28T06:12:44.603Z,25.15
2019-01-28T06:13:44.585Z,25.20
2019-01-28T06:14:44.591Z,25.17
2019-01-28T06:15:44.583Z,25.14
2019-01-28T06:16:44.629Z,25.12
2019-01-28T06:17:44.481Z,25.11
2019-01-28T06:18:44.481Z,25.11
2019-01-28T06:19:44.437Z,25.08
2019-01-28T06:20:44.430Z,25.08
2019-01-28T06:21:44.372Z,25.04
2019-01-28T06:22:44.474Z,25.07
2019-01-28T06:23:44.329Z,25.04
2019-01-28T06:24:44.330Z,24.97
2019-01-28T06:25:44.297Z,25.00
2019-01-28T06:26:44.309Z,25.01
2019-01-28T06:27:44.255Z,25.01
2019-01-28T06:28:44.313Z,25.02
2019-01-28T06:29:44.208Z,25.02
2019-01-28T06:30:44.163Z,24.97
2019-01-28T06:31:44.150Z,25.01
2019-01-28T06:32:44.115Z,25.00
2019-01-28T06:33:44.277Z,24.96
2019-01-28T06:34:44.071Z,25.00
2019-01-28T06:35:44.025Z,24.96
2019-01-28T06:36:44.033Z,24.96
2019-01-28T06:37:44.006Z,24.96
2019-01-28T06:38:44.062Z,24.93
2019-01-28T06:39:43.955Z,24.93
2019-01-28T06:40:43.941Z,24.93
2019-01-28T06:41:43.877Z,24.90
2019-01-28T06:42:43.851Z,24.90
2019-01-28T06:43:43.970Z,24.90
2019-01-28T06:44:43.812Z,24.96
2019-01-28T06:45:43.814Z,24.92
2019-01-28T06:46:43.759Z,24.97
2019-01-28T06:47:46.903Z,24.93
2019-01-28T06:48:43.824Z,24.90
2019-01-28T06:49:43.687Z,24.93
2019-01-28T06:50:43.649Z,24.97
2019-01-28T06:51:43.618Z,24.94
2019-01-28T06:52:43.608Z,24.94
2019-01-28T06:53:43.696Z,25.00
2019-01-28T06:54:43.579Z,24.96
2019-01-28T06:55:43.576Z,24.93
2019-01-28T06:56:43.529Z,25.01
2019-01-28T06:57:43.526Z,24.96
2019-01-28T06:58:43.490Z,25.01
2019-01-28T06:59:43.561Z,25.04
2019-01-28T07:00:43.434Z,25.01
2019-01-28T07:01:43.426Z,25.07
2019-01-28T07:02:43.380Z,25.09
2019-01-28T07:03:43.349Z,25.04
2019-01-28T07:04:43.320Z,25.07
2019-01-28T07:05:43.424Z,25.07
2019-01-28T07:06:43.263Z,25.12
2019-01-28T07:07:43.268Z,25.11
2019-01-28T07:08:43.885Z,25.08
2019-01-28T07:09:43.180Z,25.08
2019-01-28T07:10:43.275Z,25.15
2019-01-28T07:11:43.162Z,25.15
2019-01-28T07:12:43.302Z,25.08
2019-01-28T07:13:43.079Z,25.08
2019-01-28T07:14:43.064Z,25.14
2019-01-28T07:15:43.147Z,25.12
2019-01-28T07:16:43.004Z,25.15
2019-01-28T07:17:42.991Z,25.01
2019-01-28T07:18:42.960Z,25.02
2019-01-28T07:19:42.951Z,25.11
2019-01-28T07:20:43.126Z,25.11
2019-01-28T07:21:42.906Z,25.01
2019-01-28T07:22:42.876Z,24.97
2019-01-28T07:23:42.828Z,25.02
2019-01-28T07:24:44.337Z,25.04
2019-01-28T07:25:43.109Z,24.97
2019-01-28T07:26:42.772Z,24.96
2019-01-28T07:27:42.742Z,24.87
2019-01-28T07:28:42.729Z,24.97
2019-01-28T07:29:42.697Z,24.97
2019-01-28T07:30:42.810Z,24.93
2019-01-28T07:31:42.643Z,24.94
2019-01-28T07:32:42.618Z,24.90
2019-01-28T07:33:42.595Z,24.92
2019-01-28T07:34:42.568Z,24.92
2019-01-28T07:35:42.610Z,24.78
2019-01-28T07:36:42.615Z,24.83
2019-01-28T07:37:42.495Z,24.82
2019-01-28T07:38:42.488Z,24.80
2019-01-28T07:39:42.450Z,24.83
2019-01-28T07:40:42.405Z,24.77
2019-01-28T07:41:42.419Z,24.71
2019-01-28T07:42:42.470Z,24.71
2019-01-28T07:43:42.349Z,24.70
2019-01-28T07:44:42.312Z,24.61
2019-01-28T07:45:45.458Z,24.66
2019-01-28T07:46:42.258Z,24.64
2019-01-28T07:47:42.347Z,24.61
2019-01-28T07:48:42.221Z,24.61
2019-01-28T07:49:42.199Z,24.66
2019-01-28T07:50:42.165Z,24.64
2019-01-28T07:51:42.184Z,24.56
2019-01-28T07:52:42.219Z,24.58
2019-01-28T07:53:42.091Z,24.61
2019-01-28T07:54:42.047Z,24.69
2019-01-28T07:55:42.051Z,24.52
2019-01-28T07:56:42.025Z,24.54
2019-01-28T07:57:42.142Z,24.51
2019-01-28T07:58:42.001Z,24.52
2019-01-28T07:59:41.939Z,24.45
2019-01-28T08:00:41.912Z,24.45
2019-01-28T08:01:41.889Z,24.48
2019-01-28T08:02:42.026Z,24.44
2019-01-28T08:03:41.826Z,24.44
2019-01-28T08:04:41.804Z,24.37
2019-01-28T08:05:41.851Z,24.27
2019-01-28T08:06:41.873Z,24.37
2019-01-28T08:07:41.842Z,24.36
2019-01-28T08:08:41.729Z,24.44
2019-01-28T08:09:41.695Z,24.39
2019-01-28T08:10:41.673Z,24.34
2019-01-28T08:11:41.675Z,24.34
2019-01-28T08:12:41.641Z,24.37
2019-01-28T08:13:41.735Z,24.22
2019-01-28T08:14:41.589Z,24.19
2019-01-28T08:15:41.546Z,24.30
2019-01-28T08:16:41.490Z,24.19
2019-01-28T08:17:41.480Z,24.11
2019-01-28T08:18:41.450Z,24.24
2019-01-28T08:19:41.580Z,24.14
2019-01-28T08:20:41.424Z,24.08
2019-01-28T08:21:41.381Z,24.11
2019-01-28T08:22:41.398Z,24.09
2019-01-28T08:23:41.322Z,24.03
2019-01-28T08:24:41.296Z,24.11
2019-01-28T08:25:41.387Z,24.07
2019-01-28T08:26:41.252Z,24.11
2019-01-28T08:27:41.241Z,24.02
2019-01-28T08:28:41.208Z,24.02
2019-01-28T08:29:41.186Z,24.09
2019-01-28T08:30:41.380Z,23.97
2019-01-28T08:31:41.132Z,24.08
2019-01-28T08:32:41.102Z,24.09
2019-01-28T08:33:41.092Z,24.00
2019-01-28T08:34:41.086Z,24.07
2019-01-28T08:35:41.176Z,24.08
2019-01-28T08:36:41.030Z,24.09
2019-01-28T08:37:40.984Z,24.04
2019-01-28T08:38:40.961Z,23.90
2019-01-28T08:39:40.927Z,23.93
2019-01-28T08:40:41.008Z,23.93
2019-01-28T08:41:40.909Z,23.96
2019-01-28T08:42:40.852Z,23.90
2019-01-28T08:43:40.823Z,23.87
2019-01-28T08:44:40.842Z,23.81
2019-01-28T08:45:40.825Z,23.96
2019-01-28T08:46:40.827Z,23.81
2019-01-28T08:47:40.704Z,23.84
2019-01-28T08:48:40.724Z,23.85
2019-01-28T08:49:40.659Z,23.79
2019-01-28T08:50:40.633Z,23.85
2019-01-28T08:51:40.668Z,23.77
2019-01-28T08:52:40.696Z,23.78
2019-01-28T08:53:40.581Z,23.78
2019-01-28T08:54:40.549Z,23.74
2019-01-28T08:55:40.541Z,23.70
2019-01-28T08:56:40.485Z,23.77
2019-01-28T08:57:40.459Z,23.67
2019-01-28T08:58:40.550Z,23.75
2019-01-28T08:59:40.446Z,23.72
2019-01-28T09:00:40.401Z,23.74
2019-01-28T09:01:40.381Z,23.70
2019-01-28T09:02:40.367Z,23.74
2019-01-28T09:03:40.300Z,23.70
2019-01-28T09:04:40.384Z,23.67
2019-01-28T09:05:40.287Z,23.64
2019-01-28T09:06:40.219Z,23.75
2019-01-28T09:07:40.227Z,23.67
2019-01-28T09:08:40.182Z,23.71
2019-01-28T09:09:40.305Z,23.75
2019-01-28T09:10:40.119Z,23.70
2019-01-28T09:11:40.127Z,23.60
2019-01-28T09:12:40.102Z,23.64
2019-01-28T09:13:40.041Z,23.64
2019-01-28T09:14:40.121Z,23.57
2019-01-28T09:15:39.995Z,23.60
2019-01-28T09:16:39.988Z,23.59
2019-01-28T09:17:39.992Z,23.60
2019-01-28T09:18:39.917Z,23.59
2019-01-28T09:19:40.039Z,23.66
2019-01-28T09:20:39.894Z,23.62
2019-01-28T09:21:39.857Z,23.62
2019-01-28T09:22:39.842Z,23.47
2019-01-28T09:23:39.796Z,23.63
2019-01-28T09:24:39.826Z,23.59
2019-01-28T09:25:39.888Z,23.57
2019-01-28T09:26:39.731Z,23.50
2019-01-28T09:27:39.684Z,23.59
2019-01-28T09:28:39.647Z,23.50
2019-01-28T09:29:39.638Z,23.56
2019-01-28T09:30:39.779Z,23.56
2019-01-28T09:31:39.605Z,23.59
2019-01-28T09:32:39.574Z,23.55
2019-01-28T09:33:39.559Z,23.57
2019-01-28T09:34:39.534Z,23.56
2019-01-28T09:35:39.595Z,23.50
2019-01-28T09:36:39.469Z,23.56
2019-01-28T09:37:39.451Z,23.47
2019-01-28T09:38:39.403Z,23.47
2019-01-28T09:39:39.415Z,23.52
2019-01-28T09:40:39.374Z,23.59
2019-01-28T09:41:39.428Z,23.56
2019-01-28T09:42:39.327Z,23.57
2019-01-28T09:43:39.270Z,23.57
2019-01-28T09:44:39.247Z,23.52
2019-01-28T09:45:39.241Z,23.47
2019-01-28T09:46:39.353Z,23.50
2019-01-28T09:47:39.192Z,23.47
2019-01-28T09:48:39.159Z,23.52
2019-01-28T09:49:39.149Z,23.55
2019-01-28T09:50:39.105Z,23.52
2019-01-28T09:51:39.189Z,23.59
2019-01-28T09:52:39.070Z,23.44
2019-01-28T09:53:39.022Z,23.52
2019-01-28T09:54:39.020Z,23.50
2019-01-28T09:55:38.966Z,23.44
2019-01-28T09:56:38.996Z,23.32
2019-01-28T09:57:39.008Z,23.35
2019-01-28T09:58:38.883Z,23.34
2019-01-28T09:59:38.883Z,23.34
2019-01-28T10:00:38.869Z,23.34
2019-01-28T10:01:38.823Z,23.32
2019-01-28T10:02:38.852Z,23.32
2019-01-28T10:03:38.864Z,23.35
2019-01-28T10:04:38.786Z,23.37
2019-01-28T10:05:38.714Z,23.28
2019-01-28T10:06:38.686Z,23.40
2019-01-28T10:07:38.673Z,23.34
2019-01-28T10:08:38.747Z,23.34
2019-01-28T10:09:38.606Z,23.37
2019-01-28T10:10:38.594Z,23.32
2019-01-28T10:11:38.598Z,23.34
2019-01-28T10:12:38.555Z,23.25
2019-01-28T10:13:38.612Z,23.35
2019-01-28T10:14:38.481Z,23.26
2019-01-28T10:15:38.476Z,23.26
2019-01-28T10:16:38.411Z,23.21
2019-01-28T10:17:38.412Z,23.22
2019-01-28T10:18:41.883Z,23.25
2019-01-28T10:19:38.506Z,23.28
2019-01-28T10:20:38.337Z,23.35
2019-01-28T10:21:38.300Z,23.22
2019-01-28T10:22:38.269Z,23.26
2019-01-28T10:23:38.238Z,23.21
2019-01-28T10:24:38.217Z,23.22
2019-01-28T10:25:38.291Z,23.26
2019-01-28T10:26:38.183Z,23.22
2019-01-28T10:27:38.159Z,23.25
2019-01-28T10:28:38.171Z,23.25
2019-01-28T10:29:38.109Z,23.22
2019-01-28T10:30:38.159Z,23.26
2019-01-28T10:31:38.146Z,23.28
2019-01-28T10:32:38.040Z,23.21
2019-01-28T10:33:37.982Z,23.22
2019-01-28T10:34:37.944Z,23.16
2019-01-28T10:35:37.925Z,23.15
2019-01-28T10:36:38.117Z,23.15
2019-01-28T10:37:37.871Z,23.16
2019-01-28T10:38:37.875Z,23.18
2019-01-28T10:39:37.852Z,23.21
2019-01-28T10:40:37.815Z,23.16
2019-01-28T10:41:37.926Z,23.18
2019-01-28T10:42:37.736Z,23.14
2019-01-28T10:43:37.743Z,23.16
2019-01-28T10:44:37.755Z,23.26
2019-01-28T10:45:37.695Z,23.15
2019-01-28T10:46:37.806Z,23.21
2019-01-28T10:47:37.644Z,23.22
2019-01-28T10:48:37.598Z,23.19
2019-01-28T10:49:37.576Z,23.26
2019-01-28T10:50:37.555Z,23.29
2019-01-28T10:51:37.621Z,23.19
2019-01-28T10:52:37.488Z,23.24
2019-01-28T10:53:37.488Z,23.19
2019-01-28T10:54:37.429Z,23.12
2019-01-28T10:55:37.415Z,23.14
2019-01-28T10:56:37.398Z,23.12
2019-01-28T10:57:37.483Z,23.18
2019-01-28T10:58:37.340Z,23.16
2019-01-28T10:59:37.358Z,23.14
2019-01-28T11:00:37.330Z,23.15
2019-01-28T11:01:37.229Z,23.16
2019-01-28T11:02:37.359Z,23.14
2019-01-28T11:03:37.271Z,23.04
2019-01-28T11:04:37.172Z,23.04
2019-01-28T11:05:37.182Z,23.01
2019-01-28T11:06:37.116Z,23.07
2019-01-28T11:07:37.092Z,23.09
2019-01-28T11:08:37.172Z,23.04
2019-01-28T11:09:37.143Z,23.07
2019-01-28T11:10:37.088Z,22.99
2019-01-28T11:11:37.006Z,23.07
2019-01-28T11:12:37.079Z,23.06
2019-01-28T11:13:37.130Z,23.04
2019-01-28T11:14:37.017Z,23.04
2019-01-28T11:15:36.916Z,23.04
2019-01-28T11:16:36.995Z,22.92
2019-01-28T11:17:36.935Z,22.99
2019-01-28T11:18:37.060Z,23.00
2019-01-28T11:19:36.864Z,23.01
2019-01-28T11:20:36.818Z,22.99
2019-01-28T11:21:36.751Z,22.96
2019-01-28T11:22:36.745Z,22.88
2019-01-28T11:23:36.968Z,22.94
2019-01-28T11:24:36.660Z,22.96
2019-01-28T11:25:36.730Z,22.84
2019-01-28T11:26:36.669Z,22.89
2019-01-28T11:27:36.586Z,22.86
2019-01-28T11:28:36.777Z,22.88
2019-01-28T11:29:36.650Z,22.88
2019-01-28T11:30:36.521Z,22.88
2019-01-28T11:31:36.465Z,22.84
2019-01-28T11:32:36.467Z,22.82
2019-01-28T11:33:39.459Z,22.88
2019-01-28T11:34:36.550Z,22.82
2019-01-28T11:35:36.511Z,22.88
2019-01-28T11:36:36.359Z,22.82
2019-01-28T11:37:36.452Z,22.84
2019-01-28T11:38:36.389Z,22.79
2019-01-28T11:39:36.420Z,22.84
2019-01-28T11:40:36.463Z,22.76
2019-01-28T11:41:36.241Z,22.84
2019-01-28T11:42:36.195Z,22.82
2019-01-28T11:43:36.291Z,22.71
2019-01-28T11:44:36.186Z,22.75
2019-01-28T11:45:36.304Z,22.75
2019-01-28T11:46:36.274Z,22.73
2019-01-28T11:47:36.218Z,22.75
2019-01-28T11:48:36.252Z,22.75
2019-01-28T11:49:36.220Z,22.73
2019-01-28T11:50:36.032Z,22.75
2019-01-28T11:51:36.097Z,22.78
2019-01-28T11:52:35.945Z,22.71
2019-01-28T11:53:35.891Z,22.75
2019-01-28T11:54:35.873Z,22.70
2019-01-28T11:55:35.901Z,22.81
2019-01-28T11:56:36.385Z,22.78
2019-01-28T11:57:35.809Z,22.79
2019-01-28T11:58:35.756Z,22.79
2019-01-28T11:59:35.780Z,22.78
2019-01-28T12:00:36.159Z,22.73
2019-01-28T12:01:35.892Z,22.73
2019-01-28T12:02:35.633Z,22.84
2019-01-28T12:03:35.645Z,22.81
2019-01-28T12:04:36.400Z,22.85
2019-01-28T12:05:35.599Z,22.78
2019-01-28T12:06:36.007Z,22.78
2019-01-28T12:07:35.785Z,22.82
2019-01-28T12:08:35.791Z,22.79
2019-01-28T12:09:35.697Z,22.75
2019-01-28T12:10:35.860Z,22.73
2019-01-28T12:11:35.603Z,22.84
2019-01-28T12:12:36.049Z,22.89
2019-01-28T12:13:35.377Z,22.84
2019-01-28T12:14:35.357Z,22.84
2019-01-28T12:15:35.363Z,22.82
2019-01-28T12:16:35.371Z,22.81
2019-01-28T12:17:35.291Z,22.88
2019-01-28T12:18:35.725Z,22.84
2019-01-28T12:19:35.450Z,22.96
2019-01-28T12:20:35.681Z,22.97
2019-01-28T12:21:35.157Z,22.96
2019-01-28T12:22:35.224Z,22.96
2019-01-28T12:23:35.224Z,22.99
2019-01-28T12:24:35.409Z,22.94
2019-01-28T12:25:35.084Z,22.94
2019-01-28T12:26:35.421Z,23.00
2019-01-28T12:27:35.455Z,23.03
2019-01-28T12:28:34.990Z,23.01
2019-01-28T12:29:36.219Z,23.07
2019-01-28T12:30:34.924Z,23.06
2019-01-28T12:31:36.826Z,23.06
2019-01-28T12:32:34.992Z,23.09
2019-01-28T12:33:34.946Z,23.10
2019-01-28T12:34:39.824Z,23.16
2019-01-28T12:35:34.942Z,23.18
2019-01-28T12:36:34.938Z,23.15
2019-01-28T12:37:34.984Z,23.25
2019-01-28T12:38:34.819Z,23.21
2019-01-28T12:39:35.166Z,23.26
2019-01-28T12:40:34.975Z,23.34
2019-01-28T12:41:35.175Z,23.38
2019-01-28T12:42:34.842Z,23.38
2019-01-28T12:43:34.755Z,23.42
2019-01-28T12:44:35.494Z,23.57
2019-01-28T12:45:34.881Z,23.41
2019-01-28T12:46:34.759Z,23.56
2019-01-28T12:47:34.703Z,23.55
2019-01-28T12:48:34.564Z,23.70
2019-01-28T12:49:34.561Z,23.66
2019-01-28T12:50:35.126Z,23.74
2019-01-28T12:51:34.593Z,23.75
2019-01-28T12:52:34.493Z,23.77
2019-01-28T12:53:34.330Z,23.85